createdAt,value
2023-03-18T06:03:02.069Z,13.30
2023-03-18T06:05:39.923Z,13.30
2023-03-18T06:08:09.975Z,13.31
2023-03-18T06:10:46.916Z,13.30
2023-03-18T06:13:16.864Z,13.29
2023-03-18T06:15:52.987Z,13.24
2023-03-18T06:18:25.567Z,13.19
2023-03-18T06:21:02.922Z,13.14
2023-03-18T06:23:39.948Z,13.11
2023-03-18T06:26:09.963Z,13.08
2023-03-18T06:28:46.970Z,13.10
2023-03-18T06:31:17.205Z,13.10
2023-03-18T06:33:55.979Z,13.09
2023-03-18T06:36:26.673Z,13.05
2023-03-18T06:39:02.995Z,13.06
2023-03-18T06:41:40.032Z,13.04
2023-03-18T06:44:10.069Z,13.02
2023-03-18T06:46:46.960Z,12.98
2023-03-18T06:49:19.942Z,12.96
2023-03-18T06:51:57.020Z,13.00
2023-03-18T06:54:34.064Z,12.95
2023-03-18T06:57:04.186Z,12.98
2023-03-18T06:59:41.028Z,13.05
2023-03-18T07:02:12.771Z,13.17
2023-03-18T07:04:51.992Z,13.24
2023-03-18T07:07:22.315Z,13.34
2023-03-18T07:09:58.995Z,13.42
2023-03-18T07:12:30.126Z,13.49
2023-03-18T07:15:07.083Z,13.56
2023-03-18T07:17:37.413Z,13.59
2023-03-18T07:20:18.077Z,13.70
2023-03-18T07:22:56.011Z,13.97
2023-03-18T07:25:26.018Z,14.48
2023-03-18T07:28:03.067Z,15.13
2023-03-18T07:30:33.320Z,15.91
2023-03-18T07:33:10.117Z,16.60
2023-03-18T07:35:43.076Z,17.27
2023-03-18T07:38:21.065Z,17.97
2023-03-18T07:40:51.399Z,18.52
2023-03-18T07:43:28.081Z,18.98
2023-03-18T07:45:58.762Z,19.53
2023-03-18T07:48:35.063Z,19.95
2023-03-18T07:51:08.682Z,20.36
2023-03-18T07:53:46.174Z,20.80
2023-03-18T07:56:23.119Z,20.81
2023-03-18T07:58:53.568Z,21.10
2023-03-18T08:01:30.060Z,21.43
2023-03-18T08:04:00.167Z,21.78
2023-03-18T08:06:39.086Z,22.06
2023-03-18T08:09:10.687Z,22.14
2023-03-18T08:11:47.064Z,22.21
2023-03-18T08:14:17.517Z,22.17
2023-03-18T08:16:54.164Z,22.31
2023-03-18T08:19:24.315Z,22.63
2023-03-18T08:22:04.161Z,22.66
2023-03-18T08:24:34.234Z,22.71
2023-03-18T08:27:11.140Z,22.86
2023-03-18T08:29:41.129Z,23.01
2023-03-18T08:32:19.154Z,23.38
2023-03-18T08:34:49.410Z,23.65
2023-03-18T08:37:29.118Z,23.89
2023-03-18T08:40:06.166Z,23.68
2023-03-18T08:42:36.147Z,23.05
2023-03-18T08:45:14.196Z,22.27
2023-03-18T08:47:51.236Z,21.70
2023-03-18T08:50:21.526Z,21.39
2023-03-18T08:53:00.186Z,21.23
2023-03-18T08:55:34.498Z,21.50
2023-03-18T08:58:12.205Z,22.04
2023-03-18T09:00:51.238Z,22.68
2023-03-18T09:03:21.633Z,23.03
2023-03-18T09:05:59.206Z,23.35
2023-03-18T09:08:39.219Z,23.30
2023-03-18T09:11:10.011Z,23.63
2023-03-18T09:13:47.225Z,23.94
2023-03-18T09:16:17.446Z,24.34
2023-03-18T09:18:54.245Z,24.50
2023-03-18T09:21:24.203Z,24.69
2023-03-18T09:24:03.239Z,25.04
2023-03-18T09:26:33.265Z,24.87
2023-03-18T09:29:10.257Z,24.42
2023-03-18T09:31:40.361Z,23.66
2023-03-18T09:34:20.311Z,23.13
2023-03-18T09:36:51.308Z,22.87
2023-03-18T09:39:31.254Z,22.60
2023-03-18T09:42:18.001Z,22.92
2023-03-18T09:44:57.247Z,23.61
2023-03-18T09:47:52.297Z,23.87
2023-03-18T09:50:44.227Z,23.91
2023-03-18T09:53:24.197Z,24.05
2023-03-18T09:56:08.254Z,24.61
2023-03-18T09:58:59.304Z,24.63
2023-03-18T10:01:31.426Z,24.90
2023-03-18T10:04:14.556Z,24.93
2023-03-18T10:06:48.358Z,24.99
2023-03-18T10:09:30.267Z,25.57
2023-03-18T10:12:14.569Z,25.70
2023-03-18T10:14:56.292Z,25.88
2023-03-18T10:17:33.138Z,25.67
2023-03-18T10:20:14.313Z,25.40
2023-03-18T10:23:06.300Z,24.87
2023-03-18T10:25:49.308Z,24.28
2023-03-18T10:29:05.035Z,24.04
2023-03-18T10:32:05.284Z,23.84
2023-03-18T10:34:44.378Z,23.34
2023-03-18T10:37:33.308Z,23.10
2023-03-18T10:40:04.435Z,22.87
2023-03-18T10:42:42.366Z,22.90
2023-03-18T10:45:32.471Z,22.69
2023-03-18T10:48:17.339Z,22.47
2023-03-18T10:50:54.748Z,22.37
2023-03-18T10:53:38.353Z,22.03
2023-03-18T10:56:18.375Z,21.93
2023-03-18T10:58:49.306Z,21.52
2023-03-18T11:01:32.409Z,21.24
2023-03-18T11:04:06.750Z,21.20
2023-03-18T11:06:51.312Z,21.04
2023-03-18T11:09:24.209Z,20.81
2023-03-18T11:12:07.390Z,20.62
2023-03-18T11:14:40.436Z,20.48
2023-03-18T11:17:32.364Z,20.32
2023-03-18T11:20:11.456Z,20.17
2023-03-18T11:22:55.428Z,20.45
2023-03-18T11:25:35.393Z,20.58
2023-03-18T11:28:09.003Z,20.49
2023-03-18T11:30:57.463Z,20.20
2023-03-18T11:33:43.401Z,20.10
2023-03-18T11:36:20.548Z,20.10
2023-03-18T11:39:07.413Z,19.97
2023-03-18T11:41:42.627Z,19.98
2023-03-18T11:44:27.372Z,19.92
2023-03-18T11:47:04.536Z,19.92
2023-03-18T11:49:43.471Z,20.04
2023-03-18T11:52:34.167Z,20.15
2023-03-18T11:55:34.691Z,20.15
2023-03-18T11:58:38.447Z,20.20
2023-03-18T12:01:17.596Z,20.02
2023-03-18T12:04:12.461Z,20.03
2023-03-18T12:06:57.242Z,20.05
2023-03-18T12:09:43.449Z,20.18
2023-03-18T12:12:47.477Z,20.15
2023-03-18T12:15:28.292Z,20.34
2023-03-18T12:18:17.480Z,20.23
2023-03-18T12:20:53.409Z,19.91
2023-03-18T12:24:05.471Z,19.62
2023-03-18T12:26:43.971Z,19.63
2023-03-18T12:29:50.460Z,19.50
2023-03-18T12:32:32.785Z,19.26
2023-03-18T12:35:44.454Z,19.22
2023-03-18T12:39:08.091Z,19.13
2023-03-18T12:41:59.470Z,19.08
2023-03-18T12:44:46.691Z,19.01
2023-03-18T12:47:30.528Z,18.97
2023-03-18T12:50:05.668Z,18.99
2023-03-18T12:52:50.504Z,19.01
2023-03-18T12:55:27.031Z,19.17
2023-03-18T12:58:10.500Z,19.37
2023-03-18T13:00:48.067Z,19.67
2023-03-18T13:03:40.538Z,19.91
2023-03-18T13:06:17.344Z,20.04
2023-03-18T13:09:10.548Z,20.08
2023-03-18T13:12:09.576Z,20.20
2023-03-18T13:15:01.314Z,20.19
2023-03-18T13:17:43.502Z,20.17
2023-03-18T13:20:24.548Z,20.13
2023-03-18T13:23:18.548Z,20.19
2023-03-18T13:26:04.218Z,20.44
2023-03-18T13:29:07.662Z,20.44
2023-03-18T13:31:55.014Z,20.37
2023-03-18T13:35:17.567Z,20.34
2023-03-18T13:38:21.778Z,20.43
2023-03-18T13:41:17.628Z,20.41
2023-03-18T13:43:51.805Z,20.47
2023-03-18T13:46:39.619Z,20.54
2023-03-18T13:49:29.581Z,20.43
2023-03-18T13:52:02.146Z,20.32
2023-03-18T13:54:47.957Z,20.31
2023-03-18T13:57:47.905Z,20.04
2023-03-18T14:00:49.627Z,19.94
